EDVK/KSF METAR and TAF weather

Enter ICAO airport designator
Station Type Date Time Source
EDVK METAR 2021/07/27 19:20 UTC NOAA

EDVK 271920Z VRB02KT 9999 -RA SCT042 17/15 Q1013


Station Type Date Time Source
EDVK Decoded METAR 2021/07/27 19:20 UTC NOAA

Kassel / Calden, Germany (EDVK) 51-24N 009-23E 283M
Jul 27, 2021 - 03:20 PM EDT / 2021.07.27 1920 UTC
Wind: Variable at 2 MPH (2 KT):0
Visibility: greater than 7 mile(s):0
Sky conditions: partly cloudy
Weather: light rain
Temperature: 62 F (17 C)
Dew Point: 59 F (15 C)
Relative Humidity: 88%
Pressure (altimeter): 29.91 in. Hg (1013 hPa)
ob: EDVK 271920Z VRB02KT 9999 -RA SCT042 17/15 Q1013
cycle: 19

Station Type Date Time Source
EDVK TAF 2011/03/23 07:09 UTC NOAA

TAF COR EDVK 230655Z 2307/2321 30002KT 3500 BR SCT025 PROB30
TEMPO 2307/2309 1400 BCFG
BECMG 2307/2310 01007KT 8000

Example: see airport list